Time;durP1;ratioP1;P1;durP2;ratioP2;P2;SDS_P1;SDS_P2;PMS_P1;PMS_P2;Temp;Humidity;BMP_temperature;BMP_pressure;BME280_temperature;BME280_humidity;BME280_pressure;Samples;Min_cycle;Max_cycle;Signal;HPM_P1;HPM_P2
2022/09/07 00:02:18;;;;;;;1.63;0.60;;;;;;;22.37;33.90;100228.91;10545246;28;20216;-82
2022/09/07 00:07:40;;;;;;;7.25;0.93;;;;;;;21.06;39.06;100301.75;10550357;28;20206;-82
2022/09/07 00:13:04;;;;;;;10.90;0.68;;;;;;;22.00;40.70;100293.44;10547070;28;20252;-82
2022/09/07 00:18:26;;;;;;;2.80;0.50;;;;;;;21.57;41.71;100292.75;10559825;28;20278;-81
2022/09/07 00:23:48;;;;;;;5.57;0.20;;;;;;;21.91;43.16;100289.38;10561320;28;20212;-82
2022/09/07 00:29:10;;;;;;;2.00;0.20;;;;;;;22.45;41.88;100285.88;10558081;28;20182;-83
2022/09/07 00:34:32;;;;;;;4.13;0.38;;;;;;;21.34;45.04;100300.94;10567445;28;20202;-82
2022/09/07 00:39:54;;;;;;;4.47;0.30;;;;;;;21.74;42.96;100309.06;10543141;28;20218;-82
2022/09/07 00:45:18;;;;;;;4.53;0.50;;;;;;;21.73;42.60;100312.38;10566504;28;20235;-83
2022/09/07 00:50:45;;;;;;;1.95;0.50;;;;;;;20.63;46.13;100306.56;10543336;28;20182;-83
2022/09/07 00:56:07;;;;;;;3.08;0.50;;;;;;;21.79;44.77;100334.47;10551385;28;20210;-83
2022/09/07 01:01:30;;;;;;;3.97;0.55;;;;;;;22.62;42.72;100337.94;10539861;28;20495;-84
2022/09/07 01:06:54;;;;;;;2.00;0.45;;;;;;;21.63;45.99;100336.97;10521461;28;20310;-83
2022/09/07 01:12:16;;;;;;;3.35;0.50;;;;;;;21.41;47.28;100306.69;10528386;28;20245;-84
2022/09/07 01:18:02;;;;;;;2.75;0.80;;;;;;;21.28;49.08;100316.88;10542820;28;20226;-84
2022/09/07 01:23:30;;;;;;;6.15;0.73;;;;;;;21.29;50.47;100304.19;10528162;28;20187;-84
2022/09/07 01:29:05;;;;;;;4.47;0.77;;;;;;;20.73;51.22;100306.56;10530766;28;20244;-85
2022/09/07 01:34:27;;;;;;;3.40;0.90;;;;;;;21.31;51.42;100296.00;10536082;28;20228;-84
2022/09/07 01:40:00;;;;;;;4.55;0.70;;;;;;;20.66;51.80;100300.03;10526188;28;20226;-84
2022/09/07 01:45:26;;;;;;;20.52;1.40;;;;;;;19.88;55.52;100303.38;10529283;28;20461;-83
2022/09/07 01:50:57;;;;;;;4.43;1.08;;;;;;;20.54;54.62;100280.38;10505610;28;20225;-83
2022/09/07 01:56:26;;;;;;;4.07;0.90;;;;;;;20.11;56.12;100251.56;10539933;28;20617;-83
2022/09/07 02:01:57;;;;;;;5.38;0.90;;;;;;;19.69;56.81;100235.84;10549600;28;20818;-83
2022/09/07 02:07:34;;;;;;;0.60;0.40;;;;;;;19.60;58.89;100212.53;10548991;28;20594;-82
2022/09/07 02:13:04;;;;;;;1.27;0.70;;;;;;;19.04;59.63;100215.81;10549012;28;20240;-84
2022/09/07 02:18:30;;;;;;;0.73;0.50;;;;;;;19.24;57.93;100191.47;10548234;28;20222;-82
2022/09/07 02:24:03;;;;;;;2.28;0.50;;;;;;;19.07;59.11;100162.78;10534220;28;20251;-82
2022/09/07 02:29:25;;;;;;;4.03;0.50;;;;;;;19.33;58.25;100136.81;10548116;28;20580;-82
2022/09/07 02:34:48;;;;;;;2.83;0.40;;;;;;;19.13;59.14;100121.19;10548210;28;20235;-82
2022/09/07 02:40:11;;;;;;;1.98;0.40;;;;;;;20.42;55.35;100107.75;10590892;28;20210;-81
2022/09/07 02:46:01;;;;;;;2.75;0.70;;;;;;;19.99;56.87;100106.84;10590839;28;20186;-82
2022/09/07 02:51:47;;;;;;;1.90;0.28;;;;;;;21.07;52.78;100097.06;10555984;28;20594;-81
2022/09/07 02:57:13;;;;;;;2.38;0.30;;;;;;;20.61;54.34;100097.91;10571804;28;20194;-82
2022/09/07 03:03:01;;;;;;;1.00;0.32;;;;;;;20.32;55.55;100105.69;10564414;28;20194;-82
2022/09/07 03:08:25;;;;;;;1.20;0.38;;;;;;;20.64;54.12;100102.81;10569771;28;20239;-82
2022/09/07 03:13:47;;;;;;;1.05;0.63;;;;;;;21.60;50.80;100101.81;10571237;28;20229;-79
2022/09/07 03:19:09;;;;;;;1.67;0.63;;;;;;;21.05;51.88;100103.19;10589139;28;20259;-82
2022/09/07 03:24:32;;;;;;;3.80;0.77;;;;;;;21.18;51.82;100102.75;10586897;28;20652;-81
2022/09/07 03:29:54;;;;;;;3.67;0.68;;;;;;;21.39;50.93;100091.22;10584736;28;20646;-82
2022/09/07 03:35:16;;;;;;;2.70;0.98;;;;;;;21.29;51.22;100106.38;10573871;28;20243;-81
2022/09/07 03:40:38;;;;;;;2.83;0.77;;;;;;;21.48;50.75;100112.47;10587773;28;20209;-81
2022/09/07 03:46:03;;;;;;;1.27;0.73;;;;;;;20.95;52.33;100118.34;10587941;28;20190;-81
2022/09/07 03:51:25;;;;;;;2.55;0.60;;;;;;;20.29;54.19;100117.97;10572536;28;20190;-81
2022/09/07 03:56:47;;;;;;;2.30;0.82;;;;;;;21.21;51.90;100113.41;10569055;28;20266;-81
2022/09/07 04:02:09;;;;;;;2.78;1.05;;;;;;;20.49;53.74;100123.28;10567744;28;20194;-81
2022/09/07 04:07:31;;;;;;;2.83;0.82;;;;;;;20.55;54.25;100121.66;10550960;28;20521;-81
2022/09/07 04:12:53;;;;;;;2.22;1.10;;;;;;;20.75;52.60;100120.00;10564016;28;20618;-81
2022/09/07 04:18:16;;;;;;;2.67;1.17;;;;;;;20.65;53.44;100123.69;10554386;28;20225;-80
2022/09/07 04:23:40;;;;;;;2.13;1.17;;;;;;;21.09;51.27;100120.34;10566162;28;20266;-81
2022/09/07 04:29:03;;;;;;;4.63;1.17;;;;;;;21.06;51.81;100124.91;10577246;28;20194;-81
2022/09/07 04:34:25;;;;;;;3.40;1.25;;;;;;;20.94;50.98;100128.19;10551965;28;20804;-81
2022/09/07 04:39:47;;;;;;;3.50;1.77;;;;;;;21.16;50.73;100128.97;10563966;28;20278;-82
2022/09/07 04:45:10;;;;;;;1.80;1.67;;;;;;;21.10;50.99;100113.41;10582663;28;20189;-81
2022/09/07 04:50:32;;;;;;;2.05;1.60;;;;;;;20.91;51.13;100117.56;10563057;28;20193;-81
2022/09/07 04:55:57;;;;;;;3.15;1.70;;;;;;;21.13;51.04;100109.72;10587964;27;20244;-82
2022/09/07 05:01:21;;;;;;;1.75;1.40;;;;;;;21.53;50.04;100105.50;10612634;27;20185;-81
2022/09/07 05:06:43;;;;;;;1.67;1.30;;;;;;;21.30;51.60;100103.13;10627627;27;20201;-82
2022/09/07 05:12:05;;;;;;;2.20;1.20;;;;;;;21.21;50.38;100108.47;10562876;27;20197;-81
2022/09/07 05:17:29;;;;;;;3.40;1.63;;;;;;;20.80;51.95;100111.03;10544648;28;20295;-81
2022/09/07 05:22:58;;;;;;;3.80;1.73;;;;;;;21.18;51.16;100117.91;10586163;28;20243;-81
2022/09/07 05:28:20;;;;;;;2.05;1.15;;;;;;;20.90;52.17;100132.28;10570685;28;20207;-82
2022/09/07 05:33:47;;;;;;;2.75;1.20;;;;;;;20.58;53.12;100140.84;10564065;28;20186;-82
2022/09/07 05:39:09;;;;;;;3.53;1.70;;;;;;;20.47;52.71;100140.03;10562671;28;20241;-82
2022/09/07 05:44:31;;;;;;;2.22;1.67;;;;;;;20.49;54.18;100146.19;10561383;28;20194;-81
2022/09/07 05:49:53;;;;;;;3.67;2.42;;;;;;;20.64;52.63;100154.38;10583311;28;20198;-82
2022/09/07 05:55:16;;;;;;;2.90;2.33;;;;;;;21.30;51.02;100153.91;10581193;28;20255;-82
2022/09/07 06:00:38;;;;;;;2.20;1.95;;;;;;;21.27;50.91;100148.97;10567595;28;20694;-81
2022/09/07 06:06:03;;;;;;;2.30;2.05;;;;;;;20.84;52.80;100148.22;10541281;28;20236;-82
2022/09/07 06:11:26;;;;;;;3.60;1.95;;;;;;;21.37;51.42;100159.59;10557195;28;20194;-82
2022/09/07 06:16:48;;;;;;;4.13;2.45;;;;;;;21.48;50.79;100152.63;10583464;28;20233;-82
2022/09/07 06:22:10;;;;;;;2.90;2.33;;;;;;;21.12;52.39;100136.72;10606132;27;20242;-82
2022/09/07 06:27:32;;;;;;;3.50;2.10;;;;;;;21.82;50.97;100138.56;10602034;27;20174;-82
2022/09/07 06:32:54;;;;;;;5.43;2.60;;;;;;;21.88;51.21;100152.44;10561129;27;20212;-82
2022/09/07 06:38:16;;;;;;;6.65;2.65;;;;;;;21.78;50.80;100137.75;10575630;27;20482;-84
2022/09/07 06:43:39;;;;;;;1.42;1.25;;;;;;;21.94;50.78;100151.59;10591024;27;20266;-84
2022/09/07 06:49:01;;;;;;;2.97;1.17;;;;;;;21.15;50.90;100167.44;10560279;28;20193;-81
2022/09/07 06:54:23;;;;;;;3.28;1.35;;;;;;;21.25;51.37;100166.59;10570922;27;20197;-83
2022/09/07 06:59:45;;;;;;;1.63;1.20;;;;;;;21.54;50.75;100178.84;10593217;27;20222;-82
2022/09/07 07:05:07;;;;;;;4.65;1.58;;;;;;;20.39;53.61;100187.91;10589777;27;20528;-84
2022/09/07 07:10:30;;;;;;;3.50;1.10;;;;;;;21.81;49.30;100190.63;10556948;28;20205;-83
2022/09/07 07:15:52;;;;;;;3.38;1.20;;;;;;;21.13;50.85;100205.09;10564232;28;20300;-83
2022/09/07 07:21:14;;;;;;;3.83;1.50;;;;;;;21.48;50.38;100204.25;10574980;28;20272;-83
2022/09/07 07:26:37;;;;;;;3.42;1.60;;;;;;;21.64;51.13;100200.09;10586580;27;20189;-83
2022/09/07 07:32:00;;;;;;;1.55;1.00;;;;;;;20.68;52.31;100195.28;10570120;28;20264;-82
2022/09/07 07:37:22;;;;;;;1.88;0.82;;;;;;;21.27;50.87;100203.44;10561659;27;20212;-82
2022/09/07 07:42:44;;;;;;;4.72;1.10;;;;;;;21.92;50.89;100205.72;10583481;27;20326;-84
2022/09/07 07:48:06;;;;;;;2.10;1.05;;;;;;;22.68;49.58;100190.53;10592458;27;20250;-80
2022/09/07 07:53:23;;;;;;;3.30;1.20;;;;;;;22.63;47.66;100193.06;10580846;27;20224;-83
2022/09/07 07:58:46;;;;;;;2.72;1.20;;;;;;;22.78;47.09;100189.63;10584561;28;20213;-78
2022/09/07 08:04:08;;;;;;;3.53;1.00;;;;;;;22.14;47.49;100206.47;10554164;28;20506;-78
2022/09/07 08:09:30;;;;;;;2.95;0.95;;;;;;;23.58;46.18;100211.47;10574028;27;20209;-78
2022/09/07 08:14:52;;;;;;;4.20;1.30;;;;;;;23.45;44.91;100219.00;10563971;27;20225;-78
2022/09/07 08:20:15;;;;;;;3.20;1.02;;;;;;;22.76;47.92;100231.53;10574799;27;20222;-79
2022/09/07 08:25:37;;;;;;;1.15;0.60;;;;;;;23.35;46.15;100223.63;10570442;28;20270;-78
2022/09/07 08:31:03;;;;;;;0.98;0.98;;;;;;;22.92;47.98;100235.50;10564305;28;20206;-78
2022/09/07 08:36:25;;;;;;;2.22;0.95;;;;;;;22.67;46.54;100246.38;10578108;28;20260;-79
2022/09/07 08:41:50;;;;;;;3.45;1.02;;;;;;;22.54;47.21;100253.84;10553241;28;20282;-80
2022/09/07 08:47:35;;;;;;;2.97;0.70;;;;;;;23.47;44.25;100253.94;10565679;28;20266;-79
2022/09/07 08:53:07;;;;;;;1.65;1.13;;;;;;;23.07;45.15;100235.38;10588886;27;20216;-81
2022/09/07 08:58:42;;;;;;;2.28;0.70;;;;;;;24.19;43.43;100237.53;10571673;27;20252;-80
2022/09/07 09:04:25;;;;;;;1.05;0.90;;;;;;;23.22;44.61;100232.00;10576960;28;20659;-79
2022/09/07 09:09:57;;;;;;;2.67;0.98;;;;;;;24.61;42.41;100239.75;10562012;27;20213;-79
2022/09/07 09:15:25;;;;;;;5.90;1.02;;;;;;;23.72;41.18;100237.22;10627372;27;20513;-79
2022/09/07 09:20:49;;;;;;;1.58;0.57;;;;;;;23.54;42.10;100225.91;10580472;28;20868;-80
2022/09/07 09:26:16;;;;;;;3.40;0.98;;;;;;;23.49;42.18;100216.94;10556537;28;20219;-79
2022/09/07 09:31:38;;;;;;;0.80;0.77;;;;;;;25.26;40.02;100205.78;10558886;28;20182;-78
2022/09/07 09:37:00;;;;;;;2.67;1.40;;;;;;;24.19;40.68;100220.25;10550346;28;20195;-80
2022/09/07 09:42:23;;;;;;;3.58;2.70;;;;;;;24.47;40.50;100207.47;10475271;28;20335;-80
2022/09/07 09:47:55;;;;;;;2.10;1.42;;;;;;;25.38;39.31;100226.59;10480849;28;20203;-79
2022/09/07 09:53:52;;;;;;;3.28;1.38;;;;;;;25.35;39.70;100216.75;10522564;28;20195;-79
2022/09/07 09:59:14;;;;;;;3.92;1.50;;;;;;;24.15;40.94;100228.06;10502458;28;20596;-81
2022/09/07 10:04:36;;;;;;;3.97;1.90;;;;;;;24.52;40.20;100222.22;10474539;28;20203;-83
2022/09/07 10:09:59;;;;;;;2.25;1.60;;;;;;;24.35;39.24;100226.16;10476520;28;20238;-83
2022/09/07 10:15:35;;;;;;;3.28;2.10;;;;;;;25.06;40.34;100225.06;10469338;28;20317;-85
2022/09/07 10:21:25;;;;;;;4.97;2.38;;;;;;;24.51;40.08;100214.00;10481166;28;20235;-83
2022/09/07 10:26:47;;;;;;;2.92;1.80;;;;;;;24.34;40.14;100226.59;10519825;28;20247;-83
2022/09/07 10:32:22;;;;;;;4.15;2.17;;;;;;;24.17;40.28;100216.94;10489085;28;20198;-83
2022/09/07 10:38:07;;;;;;;5.07;1.65;;;;;;;24.59;38.85;100227.84;10486340;28;20236;-84
2022/09/07 10:43:55;;;;;;;2.17;1.77;;;;;;;25.31;38.22;100225.47;10473748;28;20214;-84
2022/09/07 10:49:59;;;;;;;2.25;1.20;;;;;;;24.11;38.84;100233.06;10488173;28;20221;-81
2022/09/07 10:55:33;;;;;;;1.60;0.90;;;;;;;25.27;36.63;100233.38;10475331;28;20199;-81
2022/09/07 11:01:23;;;;;;;1.90;1.20;;;;;;;26.02;36.50;100235.63;10474664;28;20235;-84
2022/09/07 11:06:48;;;;;;;2.92;1.60;;;;;;;25.48;36.29;100225.59;10481620;28;20297;-84
2022/09/07 11:12:17;;;;;;;2.35;1.90;;;;;;;25.68;38.16;100230.13;10495243;28;20270;-84
2022/09/07 11:17:46;;;;;;;4.90;2.88;;;;;;;25.50;37.77;100223.88;10483489;28;20312;-85
2022/09/07 11:23:23;;;;;;;2.58;2.30;;;;;;;23.69;39.95;100237.28;10505436;28;20315;-83
2022/09/07 11:28:50;;;;;;;3.35;2.50;;;;;;;25.06;38.12;100230.84;10486100;28;20198;-84
2022/09/07 11:34:28;;;;;;;5.22;4.07;;;;;;;23.65;42.55;100237.34;10495227;28;20545;-83
2022/09/07 11:39:51;;;;;;;4.82;3.83;;;;;;;25.59;38.80;100223.31;10490271;28;20212;-85
2022/09/07 11:45:32;;;;;;;4.90;4.07;;;;;;;25.55;38.47;100211.00;10486875;28;20483;-84
2022/09/07 11:50:58;;;;;;;2.30;1.80;;;;;;;25.69;37.03;100213.59;10533240;28;20198;-83
2022/09/07 11:56:28;;;;;;;2.55;1.02;;;;;;;25.48;35.79;100211.16;10500305;28;20253;-84
2022/09/07 12:01:57;;;;;;;1.23;1.00;;;;;;;25.61;35.95;100198.53;10502819;28;20273;-83
2022/09/07 12:07:28;;;;;;;1.80;1.10;;;;;;;25.75;35.40;100197.41;10495442;28;20603;-83
2022/09/07 12:13:35;;;;;;;2.38;1.00;;;;;;;26.64;34.75;100186.78;10444739;28;20200;-84
2022/09/07 12:19:16;;;;;;;2.50;1.08;;;;;;;25.27;36.67;100187.22;10496746;28;20279;-83
2022/09/07 12:24:52;;;;;;;3.17;1.00;;;;;;;24.99;37.27;100194.28;10539116;28;20244;-84
2022/09/07 12:30:14;;;;;;;4.10;1.65;;;;;;;25.13;37.15;100198.97;10494443;28;20471;-85
2022/09/07 12:35:38;;;;;;;4.32;1.67;;;;;;;24.95;37.67;100186.97;10493582;28;20472;-83
2022/09/07 12:41:21;;;;;;;2.95;1.67;;;;;;;24.30;39.11;100180.56;10452448;28;20227;-83
2022/09/07 12:46:45;;;;;;;2.33;1.42;;;;;;;26.14;34.94;100178.47;10477201;28;20226;-83
2022/09/07 12:52:39;;;;;;;1.58;1.20;;;;;;;25.28;36.33;100176.50;10469560;28;20685;-84
2022/09/07 12:58:19;;;;;;;3.53;1.23;;;;;;;25.61;35.14;100177.50;10488912;28;20207;-85
2022/09/07 13:03:55;;;;;;;2.08;0.93;;;;;;;26.44;34.40;100178.16;10495304;28;20229;-82
2022/09/07 13:09:30;;;;;;;2.00;1.30;;;;;;;25.60;35.85;100170.09;10485546;28;20268;-83
2022/09/07 13:14:54;;;;;;;1.92;1.10;;;;;;;27.01;33.53;100162.31;10480108;28;20234;-84
2022/09/07 13:20:20;;;;;;;1.00;0.90;;;;;;;27.05;32.54;100154.38;10471945;28;20242;-83
2022/09/07 13:25:45;;;;;;;4.18;1.15;;;;;;;26.23;33.17;100158.44;10475976;28;20194;-83
2022/09/07 13:31:38;;;;;;;2.10;1.05;;;;;;;26.73;33.04;100138.63;10495106;28;20271;-83
2022/09/07 13:37:04;;;;;;;1.98;0.73;;;;;;;26.62;32.76;100143.88;10472132;28;20202;-83
2022/09/07 13:42:34;;;;;;;1.90;1.00;;;;;;;27.91;32.15;100147.78;10475694;28;20460;-83
2022/09/07 13:48:24;;;;;;;2.60;1.00;;;;;;;26.72;33.19;100141.97;10485135;28;20679;-82
2022/09/07 13:53:55;;;;;;;1.92;1.45;;;;;;;25.44;35.36;100138.25;10499072;28;20226;-82
2022/09/07 13:59:22;;;;;;;2.00;1.35;;;;;;;27.29;32.34;100115.28;10502681;28;20249;-82
2022/09/07 14:04:48;;;;;;;2.95;1.55;;;;;;;27.68;32.09;100119.09;10470979;28;20215;-84
2022/09/07 14:10:18;;;;;;;1.65;1.55;;;;;;;26.83;33.32;100121.47;10503090;28;20776;-82
2022/09/07 14:15:50;;;;;;;2.88;1.52;;;;;;;27.11;34.75;100123.59;10485664;28;20567;-83
2022/09/07 14:21:16;;;;;;;2.60;1.80;;;;;;;26.71;34.53;100120.09;10489255;28;20222;-82
2022/09/07 14:26:45;;;;;;;4.80;2.08;;;;;;;26.52;35.07;100121.84;10496444;28;20210;-83
2022/09/07 14:32:12;;;;;;;3.45;1.90;;;;;;;26.95;34.34;100123.63;10473595;28;20607;-82
2022/09/07 14:37:34;;;;;;;3.55;2.20;;;;;;;27.17;33.49;100120.97;10454779;28;20252;-82
2022/09/07 14:42:56;;;;;;;2.92;2.50;;;;;;;27.06;33.83;100127.84;10502449;28;20238;-83
2022/09/07 14:48:20;;;;;;;3.38;1.98;;;;;;;26.68;35.87;100123.88;10467627;28;20268;-84
2022/09/07 14:53:49;;;;;;;2.58;2.00;;;;;;;26.12;34.87;100124.00;10502544;28;20222;-83
2022/09/07 14:59:44;;;;;;;2.20;1.90;;;;;;;25.90;36.26;100117.91;10483879;28;20247;-83
2022/09/07 15:05:17;;;;;;;3.70;1.58;;;;;;;26.36;35.13;100118.94;10486545;28;20206;-83
2022/09/07 15:11:00;;;;;;;3.83;2.10;;;;;;;25.78;35.79;100124.34;10613163;23;20642;-82
2022/09/07 15:16:24;;;;;;;3.33;1.80;;;;;;;26.32;34.45;100110.34;10234854;28;20227;-81
2022/09/07 15:21:47;;;;;;;3.40;1.50;;;;;;;25.90;35.47;100108.41;10253950;28;20250;-79
2022/09/07 15:27:19;;;;;;;2.55;1.83;;;;;;;25.29;36.14;100108.88;10254448;28;20218;-80
2022/09/07 15:32:42;;;;;;;4.88;1.42;;;;;;;26.14;34.57;100097.56;10258495;28;20246;-80
2022/09/07 15:38:05;;;;;;;2.72;1.45;;;;;;;26.11;34.54;100096.38;10235558;28;20207;-79
2022/09/07 15:43:27;;;;;;;3.65;2.60;;;;;;;25.95;33.94;100102.13;10266420;28;21665;-79
2022/09/07 15:48:54;;;;;;;1.98;1.58;;;;;;;26.34;33.77;100092.56;10246068;28;20208;-80
2022/09/07 15:54:16;;;;;;;1.98;1.60;;;;;;;26.39;32.78;100094.91;10242475;28;20226;-81
2022/09/07 15:59:38;;;;;;;2.80;1.45;;;;;;;25.43;35.93;100099.94;10243372;28;20242;-80
2022/09/07 16:05:00;;;;;;;5.03;1.65;;;;;;;25.86;33.76;100094.09;10247455;28;20273;-80
2022/09/07 16:10:23;;;;;;;6.03;2.97;;;;;;;26.39;33.64;100092.84;10214484;28;20282;-81
2022/09/07 16:15:47;;;;;;;1.63;1.25;;;;;;;25.94;33.43;100074.50;10208851;29;20297;-80
2022/09/07 16:21:11;;;;;;;3.28;1.00;;;;;;;26.50;32.46;100078.13;10197702;29;20305;-80
2022/09/07 16:26:33;;;;;;;1.65;1.30;;;;;;;25.15;34.42;100065.88;10206924;29;20204;-81
2022/09/07 16:31:56;;;;;;;3.80;2.45;;;;;;;25.75;33.63;100064.63;10193416;29;20283;-81
2022/09/07 16:37:18;;;;;;;3.40;1.83;;;;;;;25.51;33.47;100060.19;10204718;29;20227;-80
2022/09/07 16:42:40;;;;;;;4.85;1.35;;;;;;;25.78;32.42;100049.28;10208315;29;20306;-80
2022/09/07 16:48:08;;;;;;;2.10;1.30;;;;;;;25.98;33.65;100040.59;10190560;29;20569;-81
2022/09/07 16:53:34;;;;;;;2.50;1.30;;;;;;;26.67;31.49;100047.91;10205923;29;20219;-80
2022/09/07 16:59:00;;;;;;;3.95;1.70;;;;;;;26.38;32.14;100047.88;10201363;29;20231;-81
2022/09/07 17:04:22;;;;;;;6.93;1.70;;;;;;;26.28;32.51;100043.16;10204695;29;20283;-80
2022/09/07 17:09:45;;;;;;;1.48;1.00;;;;;;;26.44;31.61;100042.34;10195063;29;21517;-80
2022/09/07 17:15:07;;;;;;;3.67;0.98;;;;;;;26.88;31.24;100039.97;10195801;29;20232;-80
2022/09/07 17:20:31;;;;;;;0.82;0.70;;;;;;;26.03;32.72;100042.91;10208623;29;20223;-80
2022/09/07 17:26:04;;;;;;;4.63;1.10;;;;;;;26.77;31.22;100045.22;10207111;29;20588;-81
2022/09/07 17:31:31;;;;;;;2.47;1.10;;;;;;;26.24;32.16;100053.97;10212033;29;20786;-80
2022/09/07 17:36:54;;;;;;;4.70;1.35;;;;;;;26.62;31.44;100048.47;10215053;28;20518;-80
2022/09/07 17:42:16;;;;;;;2.10;0.68;;;;;;;26.91;31.12;100047.72;10187027;29;20271;-78
2022/09/07 17:47:39;;;;;;;3.50;1.02;;;;;;;26.75;31.21;100045.66;10207009;29;20278;-81
2022/09/07 17:53:01;;;;;;;3.97;1.52;;;;;;;26.27;32.40;100040.75;10224698;28;20200;-80
2022/09/07 17:58:24;;;;;;;1.33;1.20;;;;;;;25.78;33.31;100043.53;10185312;29;20599;-80
2022/09/07 18:03:46;;;;;;;3.78;1.40;;;;;;;24.80;34.79;100045.13;10197628;29;20715;-80
2022/09/07 18:09:08;;;;;;;2.88;1.20;;;;;;;25.86;33.19;100044.19;10204172;29;20722;-80
2022/09/07 18:14:30;;;;;;;4.38;1.30;;;;;;;25.37;34.07;100046.09;10195298;29;20275;-80
2022/09/07 18:19:52;;;;;;;2.15;1.40;;;;;;;25.01;35.90;100058.31;10201094;28;20255;-81
2022/09/07 18:25:14;;;;;;;2.05;1.40;;;;;;;24.72;36.93;100063.03;10196891;29;20228;-80
2022/09/07 18:30:38;;;;;;;2.63;1.70;;;;;;;24.69;36.32;100058.91;10206201;29;20584;-80
2022/09/07 18:36:00;;;;;;;3.80;2.10;;;;;;;24.59;38.07;100054.94;10202030;29;20235;-79
2022/09/07 18:41:22;;;;;;;4.65;2.15;;;;;;;24.73;37.54;100053.09;10203964;29;20609;-79
2022/09/07 18:46:44;;;;;;;3.65;1.85;;;;;;;24.39;37.74;100051.22;10205092;29;20289;-79
2022/09/07 18:52:06;;;;;;;3.67;1.98;;;;;;;24.19;38.87;100041.69;10206408;29;20232;-79
2022/09/07 18:57:28;;;;;;;3.15;2.00;;;;;;;24.39;39.37;100038.88;10206418;29;20256;-82
2022/09/07 19:02:50;;;;;;;2.70;1.75;;;;;;;23.88;40.59;100050.38;10209636;29;20927;-80
2022/09/07 19:08:13;;;;;;;3.92;1.80;;;;;;;24.20;39.15;100037.53;10198032;29;20255;-78
2022/09/07 19:13:36;;;;;;;4.47;2.40;;;;;;;24.20;39.26;100034.66;10194675;29;20307;-79
2022/09/07 19:19:00;;;;;;;3.15;2.00;;;;;;;24.26;39.19;100030.03;10203107;29;20277;-80
2022/09/07 19:24:22;;;;;;;7.15;2.45;;;;;;;23.94;40.17;100025.56;10201355;29;20699;-80
2022/09/07 19:29:44;;;;;;;3.50;2.40;;;;;;;24.04;39.57;100028.75;10201719;29;20772;-79
2022/09/07 19:35:06;;;;;;;5.53;2.67;;;;;;;23.88;40.58;100024.44;10197505;29;20239;-80
2022/09/07 19:40:29;;;;;;;4.15;2.90;;;;;;;23.71;40.85;100022.66;10206021;29;20276;-79
2022/09/07 19:45:51;;;;;;;3.88;2.80;;;;;;;23.60;41.30;100022.78;10192396;29;20227;-80
2022/09/07 19:51:14;;;;;;;5.07;3.00;;;;;;;23.45;41.86;100027.09;10198528;29;20333;-79
2022/09/07 19:56:38;;;;;;;4.00;3.00;;;;;;;22.06;44.63;100024.06;10214550;29;20286;-80
2022/09/07 20:02:00;;;;;;;5.95;3.13;;;;;;;22.70;43.61;100020.63;10220105;28;20283;-80
2022/09/07 20:07:22;;;;;;;4.18;3.10;;;;;;;23.76;41.35;100019.28;10206800;29;20263;-80
2022/09/07 20:12:44;;;;;;;6.85;3.60;;;;;;;23.12;42.62;100013.59;10216379;29;20684;-79
2022/09/07 20:18:07;;;;;;;4.95;3.45;;;;;;;23.42;42.17;100013.56;10189214;29;20250;-79
2022/09/07 20:23:34;;;;;;;4.97;3.75;;;;;;;23.37;42.13;100013.25;10202512;29;20577;-79
2022/09/07 20:28:56;;;;;;;6.00;3.92;;;;;;;23.80;41.40;99999.09;10202292;29;20772;-80
2022/09/07 20:34:18;;;;;;;5.68;3.72;;;;;;;23.63;41.12;99998.09;10201977;29;20625;-80
2022/09/07 20:39:40;;;;;;;4.90;3.80;;;;;;;23.54;41.56;99989.19;10201044;29;20780;-79
2022/09/07 20:45:03;;;;;;;3.85;3.47;;;;;;;23.38;42.14;99980.38;10203629;29;20224;-81
2022/09/07 20:50:25;;;;;;;6.60;3.67;;;;;;;23.43;41.65;99980.69;10206576;29;20509;-80
2022/09/07 20:55:47;;;;;;;8.15;4.60;;;;;;;22.89;42.82;99974.03;10203965;29;20644;-81
2022/09/07 21:01:10;;;;;;;9.27;4.07;;;;;;;23.08;42.39;99969.66;10195738;29;20353;-80
2022/09/07 21:06:33;;;;;;;6.13;3.78;;;;;;;22.47;44.01;99984.72;10207516;29;20282;-80
2022/09/07 21:11:56;;;;;;;6.13;4.43;;;;;;;22.24;43.95;99981.66;10203211;29;20289;-79
2022/09/07 21:17:18;;;;;;;5.03;4.45;;;;;;;22.57;43.47;99988.75;10204935;29;20228;-80
2022/09/07 21:22:44;;;;;;;5.70;4.07;;;;;;;21.78;45.63;99990.63;10209304;29;20239;-80
2022/09/07 21:28:06;;;;;;;5.55;4.43;;;;;;;22.55;44.47;99986.28;10191841;29;20324;-79
2022/09/07 21:33:30;;;;;;;5.15;4.30;;;;;;;22.94;43.24;99973.53;10199901;29;20566;-79
2022/09/07 21:38:53;;;;;;;7.65;4.72;;;;;;;21.91;44.91;99957.31;10200124;29;20291;-79
2022/09/07 21:44:15;;;;;;;5.10;4.50;;;;;;;21.15;47.32;99956.16;10208369;29;20638;-79
2022/09/07 21:49:37;;;;;;;6.88;5.18;;;;;;;21.86;46.11;99946.31;10200542;29;20195;-79
2022/09/07 21:54:59;;;;;;;7.32;5.30;;;;;;;22.57;44.14;99942.78;10206684;29;20215;-79
2022/09/07 22:00:21;;;;;;;5.57;4.97;;;;;;;22.35;44.82;99935.63;10207152;29;20204;-80
2022/09/07 22:05:43;;;;;;;7.28;4.78;;;;;;;22.42;44.11;99942.09;10218809;29;20196;-80
2022/09/07 22:11:08;;;;;;;5.07;4.63;;;;;;;22.72;43.43;99927.00;10222966;29;20236;-81
2022/09/07 22:16:32;;;;;;;5.30;4.80;;;;;;;22.49;44.12;99924.78;10198525;29;20207;-81
2022/09/07 22:21:54;;;;;;;6.18;5.57;;;;;;;22.40;44.14;99933.06;10221362;29;20216;-81
2022/09/07 22:27:16;;;;;;;8.25;5.65;;;;;;;22.51;44.42;99948.13;10213616;28;20251;-80
2022/09/07 22:32:39;;;;;;;6.05;5.50;;;;;;;22.54;44.10;99937.88;10218601;29;20207;-81
2022/09/07 22:38:01;;;;;;;6.88;6.28;;;;;;;22.83;43.33;99924.81;10212149;29;20192;-81
2022/09/07 22:43:23;;;;;;;8.98;6.78;;;;;;;21.96;45.50;99915.88;10219618;29;20219;-81
2022/09/07 22:48:45;;;;;;;8.20;6.25;;;;;;;22.16;44.91;99920.63;10222566;29;20259;-80
2022/09/07 22:54:07;;;;;;;8.50;5.78;;;;;;;22.43;44.91;99917.88;10195778;29;20259;-81
2022/09/07 22:59:30;;;;;;;7.00;5.80;;;;;;;22.27;44.61;99923.38;10218492;29;20223;-79
2022/09/07 23:04:52;;;;;;;7.00;6.30;;;;;;;22.39;44.59;99908.47;10220549;29;20741;-81
2022/09/07 23:10:14;;;;;;;7.72;5.95;;;;;;;22.01;45.91;99913.38;10229610;29;20298;-81
2022/09/07 23:15:37;;;;;;;6.63;6.03;;;;;;;22.33;44.56;99898.72;10213885;29;20200;-81
2022/09/07 23:21:00;;;;;;;8.32;5.68;;;;;;;22.14;45.06;99899.31;10212525;29;20243;-81
2022/09/07 23:26:24;;;;;;;9.05;6.85;;;;;;;22.52;44.49;99895.19;10207823;29;20267;-81
2022/09/07 23:31:46;;;;;;;7.68;6.85;;;;;;;22.61;44.44;99882.44;10218040;29;20497;-81
2022/09/07 23:37:08;;;;;;;7.78;7.05;;;;;;;22.65;43.44;99880.31;10217962;29;20203;-81
2022/09/07 23:42:30;;;;;;;7.15;6.45;;;;;;;22.40;44.93;99874.84;10233089;29;20231;-80
2022/09/07 23:47:53;;;;;;;8.10;7.40;;;;;;;22.19;44.52;99879.59;10213742;29;20219;-81
2022/09/07 23:53:16;;;;;;;9.55;8.32;;;;;;;22.40;44.12;99864.16;10211999;28;20191;-80
2022/09/07 23:58:38;;;;;;;7.60;6.82;;;;;;;21.71;46.74;99864.47;10203849;29;20200;-81
